createdAt,value
2023-04-18T00:00:52.185Z,3
2023-04-18T00:01:59.236Z,3
2023-04-18T00:03:06.395Z,3
2023-04-18T00:04:13.422Z,3
2023-04-18T00:05:20.649Z,3
2023-04-18T00:06:29.359Z,3
2023-04-18T00:07:36.225Z,3
2023-04-18T00:08:43.269Z,3
2023-04-18T00:09:50.176Z,3
2023-04-18T00:10:57.029Z,4
2023-04-18T00:12:05.899Z,3
2023-04-18T00:13:12.831Z,3
2023-04-18T00:14:22.800Z,3
2023-04-18T00:15:29.680Z,3
2023-04-18T00:16:36.630Z,3
2023-04-18T00:17:43.385Z,3
2023-04-18T00:18:50.306Z,3
2023-04-18T00:19:57.142Z,3
2023-04-18T00:21:04.083Z,4
2023-04-18T00:22:11.149Z,3
2023-04-18T00:23:18.113Z,3
2023-04-18T00:24:25.030Z,4
2023-04-18T00:25:36.205Z,3
2023-04-18T00:26:43.076Z,4
2023-04-18T00:27:49.929Z,3
2023-04-18T00:28:56.724Z,3
2023-04-18T00:30:03.700Z,3
2023-04-18T00:31:10.877Z,4
2023-04-18T00:32:18.486Z,3
2023-04-18T00:33:25.193Z,3
2023-04-18T00:34:32.096Z,4
2023-04-18T00:35:39.805Z,3
2023-04-18T00:36:47.549Z,3
2023-04-18T00:37:54.357Z,3
2023-04-18T00:39:01.213Z,4
2023-04-18T00:40:08.163Z,4
2023-04-18T00:41:15.244Z,3
2023-04-18T00:42:22.299Z,3
2023-04-18T00:43:29.195Z,3
2023-04-18T00:44:35.989Z,3
2023-04-18T00:45:42.861Z,3
2023-04-18T00:46:50.539Z,3
2023-04-18T00:47:57.382Z,3
2023-04-18T00:49:04.279Z,3
2023-04-18T00:50:11.345Z,3
2023-04-18T00:51:18.174Z,4
2023-04-18T00:52:25.026Z,3
2023-04-18T00:53:31.964Z,3
2023-04-18T00:54:38.999Z,3
2023-04-18T00:55:45.902Z,3
2023-04-18T00:56:55.770Z,3
2023-04-18T00:58:02.697Z,3
2023-04-18T00:59:09.539Z,3
2023-04-18T01:00:17.341Z,3
2023-04-18T01:01:24.243Z,3
2023-04-18T01:02:32.184Z,3
2023-04-18T01:03:42.155Z,3
2023-04-18T01:04:48.745Z,3
2023-04-18T01:05:57.114Z,3
2023-04-18T01:07:04.022Z,3
2023-04-18T01:08:10.926Z,3
2023-04-18T01:09:17.851Z,3
2023-04-18T01:10:24.782Z,3
2023-04-18T01:11:31.725Z,3
2023-04-18T01:12:39.547Z,3
2023-04-18T01:13:46.455Z,3
2023-04-18T01:15:01.162Z,3
2023-04-18T01:16:10.291Z,3
2023-04-18T01:17:17.158Z,3
2023-04-18T01:18:24.055Z,3
2023-04-18T01:19:30.977Z,3
2023-04-18T01:20:38.870Z,3
2023-04-18T01:21:49.816Z,3
2023-04-18T01:22:56.669Z,3
2023-04-18T01:24:03.527Z,3
2023-04-18T01:25:10.555Z,3
2023-04-18T01:26:17.465Z,3
2023-04-18T01:27:25.217Z,3
2023-04-18T01:28:32.173Z,3
2023-04-18T01:29:39.154Z,4
2023-04-18T01:30:46.102Z,3
2023-04-18T01:31:53.291Z,3
2023-04-18T01:33:01.283Z,3
2023-04-18T01:34:08.029Z,3
2023-04-18T01:35:15.047Z,3
2023-04-18T01:36:21.931Z,3
2023-04-18T01:37:31.751Z,3
2023-04-18T01:38:38.693Z,3
2023-04-18T01:39:45.569Z,3
2023-04-18T01:40:52.498Z,3
2023-04-18T01:41:59.393Z,3
2023-04-18T01:43:06.357Z,3
2023-04-18T01:44:13.391Z,3
2023-04-18T01:45:20.056Z,3
2023-04-18T01:46:27.002Z,3
2023-04-18T01:47:34.661Z,3
2023-04-18T01:48:41.638Z,3
2023-04-18T01:49:48.568Z,3
2023-04-18T01:50:55.623Z,3
2023-04-18T01:52:02.488Z,3
2023-04-18T01:53:09.425Z,3
2023-04-18T01:54:16.815Z,3
2023-04-18T01:55:23.409Z,3
2023-04-18T01:56:30.351Z,3
2023-04-18T01:57:37.992Z,3
2023-04-18T01:58:44.898Z,3
2023-04-18T01:59:51.848Z,3
2023-04-18T02:00:59.600Z,4
2023-04-18T02:02:09.280Z,3
2023-04-18T02:03:16.137Z,3
2023-04-18T02:04:23.873Z,3
2023-04-18T02:05:30.601Z,3
2023-04-18T02:06:37.471Z,3
2023-04-18T02:07:46.935Z,3
2023-04-18T02:08:53.880Z,4
2023-04-18T02:10:00.821Z,3
2023-04-18T02:11:07.856Z,3
2023-04-18T02:12:19.869Z,3
2023-04-18T02:13:27.746Z,3
2023-04-18T02:14:34.651Z,3
2023-04-18T02:15:41.510Z,3
2023-04-18T02:16:51.314Z,3
2023-04-18T02:17:58.181Z,4
2023-04-18T02:19:05.105Z,3
2023-04-18T02:20:12.602Z,4
2023-04-18T02:21:21.235Z,4
2023-04-18T02:22:28.069Z,3
2023-04-18T02:23:34.962Z,3
2023-04-18T02:24:42.078Z,3
2023-04-18T02:25:49.006Z,4
2023-04-18T02:26:55.907Z,4
2023-04-18T02:28:02.786Z,3
2023-04-18T02:29:09.643Z,4
2023-04-18T02:30:17.486Z,3
2023-04-18T02:31:25.127Z,3
2023-04-18T02:32:32.276Z,3
2023-04-18T02:33:39.060Z,3
2023-04-18T02:34:48.767Z,3
2023-04-18T02:35:57.455Z,3
2023-04-18T02:37:04.326Z,4
2023-04-18T02:38:11.184Z,3
2023-04-18T02:39:18.049Z,3
2023-04-18T02:40:25.014Z,3
2023-04-18T02:41:31.912Z,3
2023-04-18T02:42:38.839Z,3
2023-04-18T02:43:46.527Z,3
2023-04-18T02:44:53.436Z,4
2023-04-18T02:46:02.350Z,4
2023-04-18T02:47:09.250Z,3
2023-04-18T02:48:16.216Z,4
2023-04-18T02:49:23.047Z,4
2023-04-18T02:50:29.954Z,4
2023-04-18T02:51:36.870Z,4
2023-04-18T02:52:43.766Z,4
2023-04-18T02:53:51.661Z,4
2023-04-18T02:54:58.503Z,4
2023-04-18T02:56:05.401Z,4
2023-04-18T02:57:12.332Z,4
2023-04-18T02:58:19.252Z,4
2023-04-18T02:59:26.398Z,5
2023-04-18T03:00:33.317Z,4
2023-04-18T03:01:40.174Z,4
2023-04-18T03:02:47.154Z,4
2023-04-18T03:03:54.003Z,4
2023-04-18T03:05:01.831Z,5
2023-04-18T03:06:08.864Z,4
2023-04-18T03:07:15.737Z,4
2023-04-18T03:08:22.618Z,4
2023-04-18T03:09:30.953Z,4
2023-04-18T03:10:39.323Z,4
2023-04-18T03:11:46.279Z,5
2023-04-18T03:12:53.147Z,5
2023-04-18T03:14:00.046Z,5
2023-04-18T03:15:07.143Z,5
2023-04-18T03:16:17.966Z,5
2023-04-18T03:17:25.109Z,5
2023-04-18T03:18:32.144Z,6
2023-04-18T03:19:38.961Z,5
2023-04-18T03:20:45.968Z,5
2023-04-18T03:21:53.811Z,5
2023-04-18T03:23:00.918Z,5
2023-04-18T03:24:08.337Z,5
2023-04-18T03:25:15.528Z,5
2023-04-18T03:26:24.435Z,5
2023-04-18T03:27:32.184Z,5
2023-04-18T03:28:39.248Z,5
2023-04-18T03:29:46.182Z,4
2023-04-18T03:30:53.407Z,5
2023-04-18T03:32:00.280Z,5
2023-04-18T03:33:10.491Z,5
2023-04-18T03:34:17.297Z,5
2023-04-18T03:35:25.113Z,5
2023-04-18T03:36:31.934Z,5
2023-04-18T03:37:38.934Z,5
2023-04-18T03:38:45.857Z,5
2023-04-18T03:39:52.664Z,4
2023-04-18T03:41:06.294Z,4
2023-04-18T03:42:13.086Z,4
2023-04-18T03:43:19.914Z,4
2023-04-18T03:44:27.061Z,4
2023-04-18T03:45:37.054Z,4
2023-04-18T03:46:46.116Z,4
2023-04-18T03:47:54.220Z,4
2023-04-18T03:49:01.140Z,4
2023-04-18T03:50:10.591Z,4
2023-04-18T03:51:17.408Z,4
2023-04-18T03:52:29.947Z,4
2023-04-18T03:53:36.447Z,3
2023-04-18T03:54:44.196Z,3
2023-04-18T03:55:51.109Z,3
2023-04-18T03:56:58.072Z,3
2023-04-18T03:58:04.992Z,3
2023-04-18T03:59:11.838Z,3
2023-04-18T04:00:18.810Z,3
2023-04-18T04:01:26.434Z,3
2023-04-18T04:02:35.723Z,3
2023-04-18T04:03:42.749Z,4
2023-04-18T04:04:50.776Z,3
2023-04-18T04:05:57.643Z,3
2023-04-18T04:07:04.614Z,3
2023-04-18T04:08:11.526Z,4
2023-04-18T04:09:18.372Z,3
2023-04-18T04:10:25.315Z,3
2023-04-18T04:11:32.148Z,3
2023-04-18T04:12:39.213Z,3
2023-04-18T04:13:45.938Z,3
2023-04-18T04:14:53.916Z,4
2023-04-18T04:16:01.262Z,3
2023-04-18T04:17:08.261Z,4
2023-04-18T04:18:15.157Z,4
2023-04-18T04:19:22.117Z,3
2023-04-18T04:20:29.111Z,4
2023-04-18T04:21:36.029Z,4
2023-04-18T04:22:43.847Z,4
2023-04-18T04:23:50.830Z,4
2023-04-18T04:24:58.422Z,4
2023-04-18T04:26:05.246Z,4
2023-04-18T04:27:12.148Z,4
2023-04-18T04:28:19.815Z,4
2023-04-18T04:29:26.844Z,5
2023-04-18T04:30:36.299Z,4
2023-04-18T04:31:43.307Z,5
2023-04-18T04:32:51.963Z,5
2023-04-18T04:33:59.845Z,5
2023-04-18T04:35:09.650Z,5
2023-04-18T04:36:18.530Z,5
2023-04-18T04:37:23.565Z,5
2023-04-18T04:38:30.553Z,5
2023-04-18T04:39:37.457Z,5
2023-04-18T04:40:44.416Z,5
2023-04-18T04:41:51.269Z,6
2023-04-18T04:42:58.126Z,5
2023-04-18T04:44:05.047Z,6
2023-04-18T04:45:11.934Z,6
2023-04-18T04:46:18.816Z,5
2023-04-18T04:47:25.623Z,5
2023-04-18T04:48:32.514Z,5
2023-04-18T04:49:39.441Z,5
2023-04-18T04:50:47.295Z,6
2023-04-18T04:51:54.145Z,6
2023-04-18T04:53:00.967Z,6
2023-04-18T04:54:10.944Z,6
2023-04-18T04:55:18.187Z,6
2023-04-18T04:56:25.812Z,6
2023-04-18T04:57:32.690Z,6
2023-04-18T04:58:39.657Z,6
2023-04-18T04:59:46.585Z,6
2023-04-18T05:00:53.480Z,6
2023-04-18T05:02:00.256Z,6
2023-04-18T05:03:07.296Z,6
2023-04-18T05:04:14.532Z,7
2023-04-18T05:05:20.860Z,7
2023-04-18T05:06:27.674Z,7
2023-04-18T05:07:34.479Z,7
2023-04-18T05:08:41.385Z,7
2023-04-18T05:09:48.309Z,6
2023-04-18T05:10:55.165Z,6
2023-04-18T05:12:02.061Z,7
2023-04-18T05:13:08.950Z,8
2023-04-18T05:14:16.116Z,7
2023-04-18T05:15:22.695Z,7
2023-04-18T05:16:29.585Z,8
2023-04-18T05:17:38.603Z,7
2023-04-18T05:18:46.655Z,8
2023-04-18T05:19:56.875Z,7
2023-04-18T05:21:03.958Z,9
2023-04-18T05:22:10.825Z,8
2023-04-18T05:23:17.805Z,8
2023-04-18T05:24:24.661Z,7
2023-04-18T05:25:33.872Z,8
2023-04-18T05:26:40.826Z,8
2023-04-18T05:27:47.740Z,9
2023-04-18T05:28:54.583Z,8
2023-04-18T05:30:01.417Z,8
2023-04-18T05:31:08.978Z,8
2023-04-18T05:32:15.807Z,8
2023-04-18T05:33:25.048Z,8
2023-04-18T05:34:32.002Z,8
2023-04-18T05:35:39.675Z,8
2023-04-18T05:36:46.486Z,8
2023-04-18T05:37:53.425Z,9
2023-04-18T05:39:03.226Z,8
2023-04-18T05:40:10.099Z,10
2023-04-18T05:41:17.166Z,9
2023-04-18T05:42:23.993Z,9
2023-04-18T05:43:30.799Z,8
2023-04-18T05:44:37.773Z,9
2023-04-18T05:45:44.696Z,9
2023-04-18T05:46:51.741Z,9
2023-04-18T05:47:58.612Z,9
2023-04-18T05:49:05.450Z,10
2023-04-18T05:50:12.353Z,9
2023-04-18T05:51:19.200Z,9
2023-04-18T05:52:26.026Z,9
2023-04-18T05:53:32.821Z,9
2023-04-18T05:54:39.743Z,10
2023-04-18T05:55:46.617Z,9
2023-04-18T05:56:53.502Z,10
2023-04-18T05:58:00.405Z,10
2023-04-18T05:59:07.251Z,9
2023-04-18T06:00:14.170Z,9
2023-04-18T06:01:21.221Z,9
2023-04-18T06:02:28.372Z,10
2023-04-18T06:03:35.278Z,9
2023-04-18T06:04:42.432Z,9
2023-04-18T06:05:49.007Z,9
2023-04-18T06:06:55.819Z,8
2023-04-18T06:08:02.860Z,8
2023-04-18T06:09:09.739Z,8
2023-04-18T06:10:16.582Z,8
2023-04-18T06:11:23.423Z,8
2023-04-18T06:12:30.276Z,8
2023-04-18T06:13:37.379Z,9
2023-04-18T06:14:44.247Z,9
2023-04-18T06:15:51.155Z,9
2023-04-18T06:16:58.006Z,7
2023-04-18T06:18:05.011Z,8
2023-04-18T06:19:11.745Z,9
2023-04-18T06:20:18.594Z,8
2023-04-18T06:21:25.413Z,7
2023-04-18T06:22:32.370Z,7
2023-04-18T06:23:39.209Z,7
2023-04-18T06:24:46.196Z,8
2023-04-18T06:25:53.029Z,7
2023-04-18T06:26:59.887Z,7
2023-04-18T06:28:06.838Z,7
2023-04-18T06:29:14.467Z,8
2023-04-18T06:30:21.360Z,7
2023-04-18T06:31:28.361Z,7
2023-04-18T06:32:35.298Z,7
2023-04-18T06:33:42.106Z,7
2023-04-18T06:34:48.886Z,7
2023-04-18T06:35:55.726Z,7
2023-04-18T06:37:02.640Z,7
2023-04-18T06:38:09.426Z,7
2023-04-18T06:39:16.374Z,6
2023-04-18T06:40:23.218Z,6
2023-04-18T06:41:30.082Z,6
2023-04-18T06:42:36.999Z,6
2023-04-18T06:43:52.344Z,6
2023-04-18T06:44:50.766Z,6
2023-04-18T06:45:57.871Z,6
2023-04-18T06:47:04.758Z,6
2023-04-18T06:48:11.718Z,6
2023-04-18T06:49:18.788Z,5
2023-04-18T06:50:25.570Z,7
2023-04-18T06:51:32.462Z,6
2023-04-18T06:52:39.384Z,6
2023-04-18T06:53:49.201Z,6
2023-04-18T06:54:56.082Z,6
2023-04-18T06:56:02.976Z,6
2023-04-18T06:57:09.960Z,7
2023-04-18T06:58:16.855Z,5
2023-04-18T06:59:23.725Z,6
2023-04-18T07:00:31.399Z,6
2023-04-18T07:01:38.460Z,6
2023-04-18T07:02:45.317Z,6
2023-04-18T07:03:52.189Z,6
2023-04-18T07:04:59.053Z,6
2023-04-18T07:06:05.880Z,6
2023-04-18T07:07:12.755Z,5
2023-04-18T07:08:19.632Z,6
2023-04-18T07:09:26.476Z,7
2023-04-18T07:10:33.366Z,6
2023-04-18T07:11:40.321Z,7
2023-04-18T07:12:47.243Z,6
2023-04-18T07:13:54.196Z,5
2023-04-18T07:15:01.027Z,5
2023-04-18T07:16:08.576Z,6
2023-04-18T07:17:15.487Z,6
2023-04-18T07:18:30.582Z,6
2023-04-18T07:19:29.609Z,6
2023-04-18T07:20:36.738Z,7
2023-04-18T07:21:43.701Z,6
2023-04-18T07:22:50.426Z,6
2023-04-18T07:23:57.239Z,6
2023-04-18T07:25:04.191Z,6
2023-04-18T07:26:11.221Z,7
2023-04-18T07:27:18.127Z,7
2023-04-18T07:28:24.965Z,6
2023-04-18T07:29:31.847Z,6
2023-04-18T07:30:38.863Z,6
2023-04-18T07:31:45.712Z,7
2023-04-18T07:32:52.552Z,7
2023-04-18T07:33:59.343Z,7
2023-04-18T07:35:06.231Z,6
2023-04-18T07:36:13.040Z,6
2023-04-18T07:37:19.936Z,7
2023-04-18T07:38:26.807Z,7
2023-04-18T07:39:33.692Z,6
2023-04-18T07:40:40.548Z,6
2023-04-18T07:41:50.314Z,6
2023-04-18T07:43:00.315Z,6
2023-04-18T07:44:08.377Z,6
2023-04-18T07:45:15.245Z,6
2023-04-18T07:46:22.191Z,6
2023-04-18T07:47:29.726Z,6
2023-04-18T07:48:35.729Z,6
2023-04-18T07:49:42.628Z,6
2023-04-18T07:50:49.489Z,6
2023-04-18T07:51:56.345Z,6
2023-04-18T07:53:04.115Z,6
2023-04-18T07:54:12.847Z,6
2023-04-18T07:55:19.676Z,6
2023-04-18T07:56:26.562Z,6
2023-04-18T07:57:33.437Z,6
2023-04-18T07:58:40.477Z,6
2023-04-18T07:59:47.519Z,6
2023-04-18T08:00:54.405Z,6
2023-04-18T08:02:01.521Z,6
2023-04-18T08:03:08.521Z,6
2023-04-18T08:04:16.587Z,6
2023-04-18T08:05:23.400Z,6
2023-04-18T08:06:30.177Z,6
2023-04-18T08:07:37.240Z,5
2023-04-18T08:08:44.054Z,6
2023-04-18T08:09:51.043Z,6
2023-04-18T08:10:57.935Z,6
2023-04-18T08:12:04.830Z,5
2023-04-18T08:13:13.720Z,6
2023-04-18T08:14:20.732Z,6
2023-04-18T08:15:27.575Z,7
2023-04-18T08:16:34.479Z,6
2023-04-18T08:17:41.355Z,6
2023-04-18T08:18:48.570Z,5
2023-04-18T08:19:55.485Z,7
2023-04-18T08:21:02.342Z,6
2023-04-18T08:22:09.255Z,7
2023-04-18T08:23:16.294Z,6
2023-04-18T08:24:23.162Z,6
2023-04-18T08:25:30.004Z,6
2023-04-18T08:26:36.819Z,6
2023-04-18T08:27:43.678Z,7
2023-04-18T08:28:50.652Z,6
2023-04-18T08:29:58.406Z,6
2023-04-18T08:31:05.318Z,6
2023-04-18T08:32:12.128Z,6
2023-04-18T08:33:19.057Z,6
2023-04-18T08:34:26.044Z,7
2023-04-18T08:35:32.895Z,7
2023-04-18T08:36:39.742Z,7
2023-04-18T08:37:46.582Z,7
2023-04-18T08:38:53.602Z,7
2023-04-18T08:40:00.698Z,7
2023-04-18T08:41:08.866Z,7
2023-04-18T08:42:15.784Z,7
2023-04-18T08:43:22.608Z,7
2023-04-18T08:44:29.483Z,7
2023-04-18T08:45:37.468Z,7
2023-04-18T08:46:44.327Z,8
2023-04-18T08:47:51.225Z,7
2023-04-18T08:48:58.107Z,8
2023-04-18T08:50:04.984Z,8
2023-04-18T08:51:11.949Z,7
2023-04-18T08:52:19.026Z,7
2023-04-18T08:53:25.824Z,8
2023-04-18T08:54:32.830Z,7
2023-04-18T08:55:39.687Z,7
2023-04-18T08:56:46.505Z,7
2023-04-18T08:58:03.709Z,7
2023-04-18T08:59:10.640Z,7
2023-04-18T09:00:17.729Z,7
2023-04-18T09:01:24.773Z,7
2023-04-18T09:02:42.146Z,7
2023-04-18T09:03:48.944Z,7
2023-04-18T09:04:55.797Z,8
2023-04-18T09:06:02.715Z,7
2023-04-18T09:07:09.665Z,7
2023-04-18T09:08:16.558Z,8
2023-04-18T09:09:26.681Z,7
2023-04-18T09:10:46.115Z,8
2023-04-18T09:11:50.710Z,7
2023-04-18T09:13:02.782Z,7
2023-04-18T09:14:09.684Z,7
2023-04-18T09:15:26.844Z,7
2023-04-18T09:16:33.957Z,7
2023-04-18T09:17:45.932Z,7
2023-04-18T09:18:52.809Z,6
2023-04-18T09:20:10.052Z,6
2023-04-18T09:21:16.837Z,6
2023-04-18T09:22:23.647Z,6
2023-04-18T09:23:30.581Z,6
2023-04-18T09:24:37.436Z,6
2023-04-18T09:25:44.896Z,6
2023-04-18T09:26:51.177Z,7
2023-04-18T09:27:57.979Z,6
2023-04-18T09:29:04.811Z,7
2023-04-18T09:30:11.745Z,6
2023-04-18T09:31:18.645Z,7
2023-04-18T09:32:26.291Z,6
2023-04-18T09:33:33.337Z,6
2023-04-18T09:34:40.167Z,6
2023-04-18T09:35:56.080Z,5
2023-04-18T09:37:14.540Z,5
2023-04-18T09:38:21.317Z,6
2023-04-18T09:39:38.489Z,6
2023-04-18T09:40:45.422Z,6
2023-04-18T09:41:52.284Z,6
2023-04-18T09:43:01.693Z,6
2023-04-18T09:44:18.958Z,6
2023-04-18T09:45:25.670Z,6
2023-04-18T09:46:32.559Z,6
2023-04-18T09:47:39.415Z,6
2023-04-18T09:48:46.150Z,6
2023-04-18T09:49:52.990Z,6
2023-04-18T09:50:59.852Z,6
2023-04-18T09:52:09.493Z,6
2023-04-18T09:53:17.300Z,5
2023-04-18T09:54:23.114Z,5
2023-04-18T09:55:30.001Z,5
2023-04-18T09:56:36.834Z,5
2023-04-18T09:57:43.618Z,5
2023-04-18T09:58:50.427Z,5
2023-04-18T10:00:00.215Z,5
2023-04-18T10:01:07.204Z,5
2023-04-18T10:02:14.093Z,6
2023-04-18T10:03:24.120Z,5
2023-04-18T10:04:31.058Z,5
2023-04-18T10:05:37.741Z,5
2023-04-18T10:06:44.517Z,5
2023-04-18T10:07:51.338Z,5
2023-04-18T10:08:58.252Z,5
2023-04-18T10:10:08.166Z,5
2023-04-18T10:11:15.063Z,5
2023-04-18T10:12:24.079Z,5
2023-04-18T10:13:30.964Z,5
2023-04-18T10:14:37.935Z,5
2023-04-18T10:15:45.101Z,5
2023-04-18T10:16:52.237Z,6
2023-04-18T10:18:04.960Z,5
2023-04-18T10:19:05.857Z,5
2023-04-18T10:20:23.207Z,5
2023-04-18T10:21:32.645Z,5
2023-04-18T10:22:40.454Z,5
2023-04-18T10:23:47.368Z,5
2023-04-18T10:24:54.223Z,5
2023-04-18T10:26:01.202Z,4
2023-04-18T10:27:11.001Z,4
2023-04-18T10:28:20.677Z,5
2023-04-18T10:29:30.360Z,4
2023-04-18T10:30:47.727Z,5
2023-04-18T10:31:54.587Z,4
2023-04-18T10:33:01.394Z,5
2023-04-18T10:34:18.676Z,5
2023-04-18T10:35:25.543Z,4
2023-04-18T10:36:32.422Z,4
2023-04-18T10:37:39.210Z,5
2023-04-18T10:38:53.960Z,5
2023-04-18T10:40:03.637Z,5
2023-04-18T10:41:10.781Z,4
2023-04-18T10:42:17.638Z,5
2023-04-18T10:43:29.603Z,4
2023-04-18T10:44:36.447Z,4
2023-04-18T10:45:43.267Z,5
2023-04-18T10:46:50.164Z,4
2023-04-18T10:47:57.016Z,5
2023-04-18T10:49:14.392Z,5
2023-04-18T10:50:20.994Z,5
2023-04-18T10:51:30.571Z,4
2023-04-18T10:52:37.393Z,5
2023-04-18T10:53:44.323Z,4
2023-04-18T10:54:51.087Z,5
2023-04-18T10:55:57.957Z,5
2023-04-18T10:57:04.823Z,5
2023-04-18T10:58:11.596Z,4
2023-04-18T10:59:18.481Z,4
2023-04-18T11:00:25.244Z,4
2023-04-18T11:01:32.830Z,4
2023-04-18T11:02:39.163Z,4
2023-04-18T11:03:50.997Z,4
2023-04-18T11:04:57.717Z,4
2023-04-18T11:06:04.517Z,4
2023-04-18T11:07:11.563Z,5
2023-04-18T11:08:18.374Z,4
2023-04-18T11:09:27.970Z,4
2023-04-18T11:10:34.786Z,4
2023-04-18T11:11:41.686Z,5
2023-04-18T11:12:48.506Z,4
2023-04-18T11:13:55.355Z,4
2023-04-18T11:15:02.227Z,4
2023-04-18T11:16:14.396Z,4
2023-04-18T11:17:31.568Z,4
2023-04-18T11:18:41.079Z,4
2023-04-18T11:19:47.875Z,4
2023-04-18T11:20:54.855Z,4
2023-04-18T11:22:01.772Z,4
2023-04-18T11:23:08.647Z,4
2023-04-18T11:24:20.766Z,4
2023-04-18T11:25:27.582Z,4
2023-04-18T11:26:37.882Z,4
2023-04-18T11:27:44.746Z,4
2023-04-18T11:28:51.577Z,4
2023-04-18T11:30:01.215Z,4
2023-04-18T11:31:08.402Z,4
2023-04-18T11:32:15.351Z,4
2023-04-18T11:33:22.224Z,4
2023-04-18T11:34:29.114Z,4
2023-04-18T11:35:35.915Z,4
2023-04-18T11:36:45.414Z,3
2023-04-18T11:37:52.203Z,4
2023-04-18T11:38:59.140Z,4
2023-04-18T11:40:06.010Z,4
2023-04-18T11:41:12.916Z,4
2023-04-18T11:42:19.826Z,4
2023-04-18T11:43:29.258Z,4
2023-04-18T11:44:36.251Z,4
2023-04-18T11:45:43.024Z,4
2023-04-18T11:46:55.072Z,4
2023-04-18T11:48:01.998Z,4
2023-04-18T11:49:08.807Z,4
2023-04-18T11:50:35.914Z,4
2023-04-18T11:51:44.519Z,4
2023-04-18T11:52:51.357Z,4
2023-04-18T11:53:58.174Z,4
2023-04-18T11:55:05.036Z,4
2023-04-18T11:56:17.216Z,4
2023-04-18T11:57:23.993Z,4
2023-04-18T11:58:30.858Z,4
2023-04-18T11:59:37.682Z,4
2023-04-18T12:00:44.515Z,4
2023-04-18T12:01:51.270Z,4
2023-04-18T12:03:03.425Z,4
2023-04-18T12:04:10.297Z,4
2023-04-18T12:05:17.281Z,4
2023-04-18T12:06:29.064Z,4
2023-04-18T12:07:46.172Z,4
2023-04-18T12:08:54.090Z,4
2023-04-18T12:10:02.508Z,3
2023-04-18T12:11:09.655Z,3
2023-04-18T12:12:16.479Z,3
2023-04-18T12:13:23.466Z,4
2023-04-18T12:14:30.460Z,4
2023-04-18T12:15:37.382Z,3
2023-04-18T12:16:44.183Z,3
2023-04-18T12:17:54.002Z,4
2023-04-18T12:19:03.583Z,4
2023-04-18T12:20:10.410Z,3
2023-04-18T12:21:17.231Z,3
2023-04-18T12:22:24.356Z,4
2023-04-18T12:23:39.048Z,4
2023-04-18T12:24:45.917Z,4
2023-04-18T12:25:52.851Z,4
2023-04-18T12:27:05.306Z,4
2023-04-18T12:28:12.312Z,4
2023-04-18T12:29:19.119Z,3
2023-04-18T12:30:26.022Z,4
2023-04-18T12:31:32.868Z,3
2023-04-18T12:32:39.695Z,4
2023-04-18T12:33:46.521Z,4
2023-04-18T12:34:53.422Z,4
2023-04-18T12:36:00.322Z,4
2023-04-18T12:37:07.732Z,3
2023-04-18T12:38:17.927Z,4
2023-04-18T12:39:28.879Z,4
2023-04-18T12:40:35.708Z,4
2023-04-18T12:41:42.536Z,3
2023-04-18T12:42:49.424Z,4
2023-04-18T12:43:56.211Z,3
2023-04-18T12:45:03.082Z,4
2023-04-18T12:46:10.347Z,3
2023-04-18T12:47:17.175Z,4
2023-04-18T12:48:24.199Z,4
2023-04-18T12:49:31.175Z,3
2023-04-18T12:50:37.964Z,4
2023-04-18T12:51:44.805Z,4
2023-04-18T12:52:51.614Z,4
2023-04-18T12:53:58.744Z,4
2023-04-18T12:55:05.498Z,4
2023-04-18T12:56:12.498Z,4
2023-04-18T12:57:19.351Z,4
2023-04-18T12:58:26.104Z,4
2023-04-18T12:59:33.848Z,4
2023-04-18T13:00:40.763Z,4
2023-04-18T13:01:47.562Z,4
2023-04-18T13:02:54.559Z,4
2023-04-18T13:04:21.768Z,4
2023-04-18T13:05:30.866Z,4
2023-04-18T13:06:35.208Z,4
2023-04-18T13:07:41.975Z,4
2023-04-18T13:08:48.767Z,4
2023-04-18T13:09:55.534Z,4
2023-04-18T13:11:02.269Z,4
2023-04-18T13:12:09.013Z,3
2023-04-18T13:13:15.810Z,3
2023-04-18T13:14:22.679Z,4
2023-04-18T13:15:29.713Z,3
2023-04-18T13:16:36.619Z,3
2023-04-18T13:17:43.392Z,4
2023-04-18T13:18:50.150Z,4
2023-04-18T13:19:56.909Z,4
2023-04-18T13:21:03.788Z,4
2023-04-18T13:22:10.621Z,3
2023-04-18T13:23:17.487Z,3
2023-04-18T13:24:24.236Z,3
2023-04-18T13:25:31.260Z,3
2023-04-18T13:26:37.921Z,3
2023-04-18T13:27:44.898Z,3
2023-04-18T13:28:51.777Z,4
2023-04-18T13:29:58.684Z,4
2023-04-18T13:31:05.504Z,3
2023-04-18T13:32:12.471Z,3
2023-04-18T13:33:19.339Z,4
2023-04-18T13:34:26.192Z,3
2023-04-18T13:35:33.107Z,4
2023-04-18T13:36:39.997Z,3
2023-04-18T13:37:46.813Z,4
2023-04-18T13:38:53.751Z,4
2023-04-18T13:40:00.628Z,3
2023-04-18T13:44:05.354Z,4
2023-04-18T13:45:12.241Z,4
2023-04-18T13:46:19.165Z,4
2023-04-18T13:47:26.141Z,4
2023-04-18T13:48:33.042Z,4
2023-04-18T13:49:40.745Z,4
2023-04-18T13:50:47.705Z,4
2023-04-18T13:51:55.560Z,4
2023-04-18T13:53:02.487Z,4
2023-04-18T13:54:09.374Z,4
2023-04-18T13:55:16.314Z,3
2023-04-18T13:56:24.136Z,3
2023-04-18T13:57:31.040Z,3
2023-04-18T13:58:37.978Z,4
2023-04-18T13:59:44.956Z,3
2023-04-18T14:00:51.841Z,4
2023-04-18T14:01:58.855Z,4
2023-04-18T14:03:05.800Z,3
2023-04-18T14:04:12.884Z,3
2023-04-18T14:05:19.556Z,3
2023-04-18T14:06:26.455Z,3
2023-04-18T14:07:33.381Z,3
2023-04-18T14:08:40.384Z,3
2023-04-18T14:09:47.245Z,3
2023-04-18T14:10:54.097Z,4
2023-04-18T14:12:00.955Z,3
2023-04-18T14:13:07.985Z,3
2023-04-18T14:14:14.924Z,3
2023-04-18T14:16:59.733Z,3
2023-04-18T14:18:06.707Z,3
2023-04-18T14:19:13.803Z,3
2023-04-18T14:20:20.479Z,3
2023-04-18T14:21:27.322Z,3
2023-04-18T14:22:34.433Z,3
2023-04-18T14:23:42.248Z,3
2023-04-18T14:24:49.112Z,4
2023-04-18T14:25:56.060Z,3
2023-04-18T14:27:02.906Z,3
2023-04-18T14:28:09.934Z,3
2023-04-18T14:29:16.960Z,3
2023-04-18T14:30:23.626Z,3
2023-04-18T14:31:30.545Z,3
2023-04-18T14:32:37.387Z,3
2023-04-18T14:33:44.285Z,3
2023-04-18T14:34:51.245Z,3
2023-04-18T14:35:58.079Z,3
2023-04-18T14:37:05.006Z,3
2023-04-18T14:38:11.911Z,3
2023-04-18T14:39:18.850Z,3
2023-04-18T14:40:25.810Z,3
2023-04-18T14:41:32.688Z,3
2023-04-18T14:42:39.517Z,3
2023-04-18T14:43:46.339Z,3
2023-04-18T14:44:53.192Z,3
2023-04-18T14:46:00.175Z,3
2023-04-18T14:47:07.113Z,3
2023-04-18T14:48:14.039Z,4
2023-04-18T14:49:20.946Z,3
2023-04-18T14:50:27.835Z,4
2023-04-18T14:51:34.790Z,3
2023-04-18T14:52:42.572Z,4
2023-04-18T14:53:49.458Z,4
2023-04-18T14:54:57.223Z,4
2023-04-18T14:56:04.047Z,4
2023-04-18T14:57:10.924Z,4
2023-04-18T14:58:17.902Z,4
2023-04-18T14:59:24.735Z,4
2023-04-18T15:00:31.532Z,4
2023-04-18T15:01:38.434Z,4
2023-04-18T15:02:46.336Z,4
2023-04-18T15:03:53.630Z,4
2023-04-18T15:05:00.037Z,4
2023-04-18T15:06:06.895Z,4
2023-04-18T15:07:13.864Z,4
2023-04-18T15:08:20.717Z,4
2023-04-18T15:09:27.670Z,5
2023-04-18T15:10:34.700Z,5
2023-04-18T15:11:41.638Z,4
2023-04-18T15:12:49.709Z,5
2023-04-18T15:13:56.594Z,4
2023-04-18T15:15:03.534Z,5
2023-04-18T15:16:10.780Z,4
2023-04-18T15:17:17.579Z,5
2023-04-18T15:18:24.496Z,5
2023-04-18T15:19:31.518Z,4
2023-04-18T15:20:38.376Z,4
2023-04-18T15:21:45.345Z,4
2023-04-18T15:22:52.234Z,4
2023-04-18T15:23:59.136Z,4
2023-04-18T15:25:06.159Z,4
2023-04-18T15:26:13.104Z,4
2023-04-18T15:27:20.891Z,4
2023-04-18T15:28:27.891Z,5
2023-04-18T15:29:34.759Z,4
2023-04-18T15:30:41.605Z,4
2023-04-18T15:31:48.447Z,4
2023-04-18T15:32:55.383Z,4
2023-04-18T15:34:02.350Z,4
2023-04-18T15:35:09.532Z,4
2023-04-18T15:36:16.505Z,4
2023-04-18T15:37:23.430Z,4
2023-04-18T15:38:32.338Z,4
2023-04-18T15:39:37.987Z,4
2023-04-18T15:40:45.027Z,4
2023-04-18T15:41:51.842Z,4
2023-04-18T15:42:58.786Z,4
2023-04-18T15:44:07.761Z,4
2023-04-18T15:45:13.044Z,4
2023-04-18T15:46:20.195Z,4
2023-04-18T15:47:27.142Z,4
2023-04-18T15:48:34.092Z,4
2023-04-18T15:49:40.987Z,5
2023-04-18T15:50:47.985Z,4
2023-04-18T15:51:54.870Z,5
2023-04-18T15:53:01.943Z,4
2023-04-18T15:54:08.777Z,4
2023-04-18T15:55:15.625Z,4
2023-04-18T15:56:22.452Z,4
2023-04-18T15:57:32.112Z,4
2023-04-18T15:58:39.056Z,4
2023-04-18T15:59:45.900Z,4
2023-04-18T16:00:52.868Z,4
2023-04-18T16:01:59.806Z,4
2023-04-18T16:03:06.768Z,4
2023-04-18T16:04:13.819Z,4
2023-04-18T16:05:20.542Z,4
2023-04-18T16:06:27.637Z,5
2023-04-18T16:07:34.583Z,5
2023-04-18T16:08:44.606Z,5
2023-04-18T16:09:51.409Z,4
2023-04-18T16:10:58.215Z,4
2023-04-18T16:12:05.106Z,4
2023-04-18T16:13:11.943Z,4
2023-04-18T16:14:18.847Z,4
2023-04-18T16:15:25.666Z,4
2023-04-18T16:16:35.543Z,5
2023-04-18T16:17:42.505Z,4
2023-04-18T16:18:49.406Z,4
2023-04-18T16:19:56.232Z,4
2023-04-18T16:21:03.178Z,5
2023-04-18T16:22:09.990Z,5
2023-04-18T16:23:16.911Z,4
2023-04-18T16:24:24.048Z,4
2023-04-18T16:25:30.993Z,4
2023-04-18T16:26:37.923Z,4
2023-04-18T16:27:44.874Z,4
2023-04-18T16:28:52.653Z,4
2023-04-18T16:30:00.125Z,4
2023-04-18T16:31:07.382Z,4
2023-04-18T16:32:14.253Z,4
2023-04-18T16:33:21.190Z,4
2023-04-18T16:34:28.172Z,4
2023-04-18T16:35:35.073Z,5
2023-04-18T16:36:42.021Z,5
2023-04-18T16:37:49.030Z,5
2023-04-18T16:38:55.922Z,5
2023-04-18T16:40:02.801Z,5
2023-04-18T16:41:10.304Z,6
2023-04-18T16:42:18.160Z,5
2023-04-18T16:43:25.063Z,5